Accueil
METAR-TAF:

METAR-TAF

Aéroports :

Aérodrome de Maré - La Roche

Maré, Nouvelle-Calédonie

latitude: 21-28-53S, longitude: 168-02-15E, altitude: 42 m

METAR: absent

Heure: 14:32 (03:32 UTC)

Prévision

Le bulletin a été fait il y a 10 heures et 32 minutes, à 17:00 UTC
Prévision valable du 10 à 18 UTC au 11 à 18 UTC
Vent 8 kt de nord-ouest
Visibilité 10 km ou plus
Nuages épars à une hauteur de 800 ft
Nuages fragmentés à une hauteur de 2000 ft
Temporairement
du 10 à 18 UTC au 11 à 04 UTC
Nuages fragmentés à une hauteur de 800 ft
pluie
Probabilité 30% :
Temporairement
du 10 à 18 UTC au 10 à 22 UTC
Visibilité: 3000 m
Nuages fragmentés à une hauteur de 600 ft
averses de pluie

TAF: NWWR 101700Z 1018/1118 31008KT 9999 SCT008 BKN020 TEMPO 1018/1104 RA BKN008 PROB30 TEMPO 1018/1022 3000 SHRA BKN006

Observations et prévisions météorologiques de plus de 4000 aéroports (messages METAR et TAF).

Les stations disponibles sont représentées par des disques jaunes et rouges sur la carte.

Passer la souris dessus pour voir le nom de la station.

Cliquer dessus pour voir les observations et prévisions météorologiques.

Pour changer de carte: cliquez sur les boutons verts avec une croix noire pour zoomer, sur le bouton vert avec un tiret pour effectuer un zoom arrière, ou sur les flèches vertes pour les cartes adjacentes.


METAR-TAF: